createdAt,value
2017-12-21T00:00:49.698Z,21.10
2017-12-21T00:03:15.731Z,21.30
2017-12-21T00:05:41.805Z,18.17
2017-12-21T00:08:07.836Z,17.20
2017-12-21T00:10:34.297Z,18.33
2017-12-21T00:13:00.272Z,16.50
2017-12-21T00:15:26.323Z,16.77
2017-12-21T00:17:52.423Z,18.20
2017-12-21T00:20:18.477Z,17.13
2017-12-21T00:22:44.828Z,19.93
2017-12-21T00:25:10.840Z,18.50
2017-12-21T00:27:36.921Z,18.50
2017-12-21T00:30:02.974Z,18.93
2017-12-21T00:32:28.965Z,21.03
2017-12-21T00:34:55.011Z,19.97
2017-12-21T00:37:21.029Z,17.97
2017-12-21T00:39:47.390Z,19.60
2017-12-21T00:42:13.373Z,18.87
2017-12-21T00:44:39.414Z,19.17
2017-12-21T00:47:05.453Z,19.33
2017-12-21T00:49:31.469Z,18.03
2017-12-21T00:51:57.514Z,18.17
2017-12-21T00:54:23.905Z,18.33
2017-12-21T00:56:50.324Z,18.27
2017-12-21T00:59:16.398Z,19.20
2017-12-21T01:01:42.421Z,19.30
2017-12-21T01:04:08.487Z,19.07
2017-12-21T01:06:34.713Z,21.20
2017-12-21T01:09:00.769Z,19.60
2017-12-21T01:11:26.789Z,20.00
2017-12-21T01:13:53.203Z,20.93
2017-12-21T01:16:19.242Z,18.03
2017-12-21T01:18:45.261Z,18.00
2017-12-21T01:21:11.298Z,20.77
2017-12-21T01:23:37.293Z,20.77
2017-12-21T01:26:03.347Z,21.17
2017-12-21T01:28:29.343Z,19.80
2017-12-21T01:30:55.705Z,19.57
2017-12-21T01:33:21.727Z,21.10
2017-12-21T01:35:47.763Z,21.17
2017-12-21T01:38:13.829Z,20.40
2017-12-21T01:40:39.816Z,22.33
2017-12-21T01:43:06.136Z,20.53
2017-12-21T01:45:32.140Z,21.20
2017-12-21T01:47:58.510Z,22.20
2017-12-21T01:50:24.566Z,21.60
2017-12-21T01:52:50.655Z,20.53
2017-12-21T01:55:17.169Z,22.30
2017-12-21T01:57:43.189Z,21.53
2017-12-21T02:00:09.211Z,22.50
2017-12-21T02:02:35.255Z,21.53
2017-12-21T02:05:01.261Z,20.97
2017-12-21T02:07:27.297Z,22.50
2017-12-21T02:09:53.312Z,24.07
2017-12-21T02:12:19.698Z,20.57
2017-12-21T02:14:45.987Z,21.83
2017-12-21T02:17:12.048Z,22.30
2017-12-21T02:19:38.038Z,20.60
2017-12-21T02:22:04.057Z,24.23
2017-12-21T02:24:30.364Z,23.07
2017-12-21T02:26:56.346Z,22.30
2017-12-21T02:29:22.343Z,21.50
2017-12-21T02:31:48.680Z,19.80
2017-12-21T02:34:14.681Z,21.10
2017-12-21T02:36:40.684Z,23.43
2017-12-21T02:39:07.055Z,24.33
2017-12-21T02:41:34.058Z,20.20
2017-12-21T02:44:00.097Z,21.43
2017-12-21T02:46:26.143Z,24.87
2017-12-21T02:48:52.219Z,23.47
2017-12-21T02:51:18.245Z,23.50
2017-12-21T02:53:44.220Z,26.17
2017-12-21T02:56:10.561Z,23.70
2017-12-21T02:58:36.597Z,23.57
2017-12-21T03:01:02.614Z,21.30
2017-12-21T03:03:28.591Z,21.60
2017-12-21T03:05:54.642Z,21.50
2017-12-21T03:08:21.019Z,21.23
2017-12-21T03:10:47.037Z,23.07
2017-12-21T03:13:13.038Z,21.63
2017-12-21T03:15:39.033Z,21.33
2017-12-21T03:18:05.025Z,19.80
2017-12-21T03:20:31.094Z,19.10
2017-12-21T03:22:57.139Z,19.17
2017-12-21T03:25:23.605Z,20.33
2017-12-21T03:27:49.658Z,19.07
2017-12-21T03:30:15.685Z,20.03
2017-12-21T03:32:41.738Z,18.00
2017-12-21T03:35:07.799Z,19.97
2017-12-21T03:37:34.232Z,17.80
2017-12-21T03:40:00.268Z,15.73
2017-12-21T03:42:26.313Z,18.00
2017-12-21T03:44:52.370Z,18.00
2017-12-21T03:47:18.440Z,19.63
2017-12-21T03:49:44.497Z,18.63
2017-12-21T03:52:10.470Z,16.43
2017-12-21T03:54:36.891Z,17.60
2017-12-21T03:57:02.981Z,19.50
2017-12-21T03:59:29.026Z,16.83
2017-12-21T04:01:55.047Z,15.77
2017-12-21T04:04:21.048Z,17.80
2017-12-21T04:06:47.868Z,15.23
2017-12-21T04:09:13.850Z,16.83
2017-12-21T04:11:39.859Z,16.10
2017-12-21T04:14:05.901Z,16.80
2017-12-21T04:16:31.905Z,14.70
2017-12-21T04:18:57.971Z,15.40
2017-12-21T04:21:24.019Z,13.80
2017-12-21T04:23:50.445Z,14.50
2017-12-21T04:26:16.469Z,13.50
2017-12-21T04:28:42.504Z,13.07
2017-12-21T04:31:08.555Z,13.13
2017-12-21T04:33:34.561Z,12.10
2017-12-21T04:36:00.610Z,11.50
2017-12-21T04:38:26.625Z,10.60
2017-12-21T04:40:53.013Z,12.03
2017-12-21T04:43:19.116Z,11.50
2017-12-21T04:45:45.045Z,10.10
2017-12-21T04:48:11.045Z,11.10
2017-12-21T04:50:37.026Z,9.57
2017-12-21T04:53:03.520Z,10.03
2017-12-21T04:55:29.574Z,10.27
2017-12-21T04:57:55.609Z,10.63
2017-12-21T05:00:21.674Z,8.90
2017-12-21T05:02:47.749Z,9.30
2017-12-21T05:05:13.733Z,7.90
2017-12-21T05:07:40.127Z,12.23
2017-12-21T05:10:07.573Z,8.50
2017-12-21T05:12:33.551Z,9.27
2017-12-21T05:14:59.673Z,7.10
2017-12-21T05:17:25.797Z,8.03
2017-12-21T05:19:51.857Z,10.30
2017-12-21T05:22:17.853Z,6.90
2017-12-21T05:24:44.328Z,6.77
2017-12-21T05:27:10.365Z,11.80
2017-12-21T05:29:36.445Z,7.73
2017-12-21T05:32:02.558Z,7.00
2017-12-21T05:34:28.574Z,7.40
2017-12-21T05:36:54.991Z,6.63
2017-12-21T05:39:21.038Z,5.57
2017-12-21T05:41:47.106Z,6.77
2017-12-21T05:44:13.258Z,7.20
2017-12-21T05:46:39.226Z,7.37
2017-12-21T05:49:05.308Z,7.97
2017-12-21T05:51:31.337Z,7.80
2017-12-21T05:53:57.682Z,7.20
2017-12-21T05:56:23.741Z,7.53
2017-12-21T05:58:49.769Z,6.90
2017-12-21T06:01:15.781Z,6.73
2017-12-21T06:03:41.834Z,8.30
2017-12-21T06:06:08.344Z,8.33
2017-12-21T06:08:34.386Z,9.57
2017-12-21T06:11:00.415Z,10.27
2017-12-21T06:13:26.505Z,9.43
2017-12-21T06:15:52.559Z,7.00
2017-12-21T06:18:18.946Z,7.23
2017-12-21T06:20:44.976Z,6.60
2017-12-21T06:23:11.004Z,5.97
2017-12-21T06:25:37.061Z,10.37
2017-12-21T06:28:03.058Z,5.60
2017-12-21T06:30:29.357Z,8.17
2017-12-21T06:32:55.324Z,12.03
2017-12-21T06:35:21.338Z,5.70
2017-12-21T06:37:47.390Z,8.67
2017-12-21T06:40:13.418Z,7.90
2017-12-21T06:42:39.792Z,6.60
2017-12-21T06:45:05.849Z,6.70
2017-12-21T06:47:31.977Z,8.10
2017-12-21T06:49:58.014Z,7.73
2017-12-21T06:52:24.065Z,8.33
2017-12-21T06:54:50.534Z,8.10
2017-12-21T06:57:16.565Z,8.97
2017-12-21T06:59:42.596Z,6.47
2017-12-21T07:02:08.664Z,5.43
2017-12-21T07:04:34.701Z,7.83
2017-12-21T07:07:00.789Z,7.73
2017-12-21T07:09:26.841Z,6.90
2017-12-21T07:11:53.266Z,6.43
2017-12-21T07:14:19.320Z,6.27
2017-12-21T07:16:45.370Z,4.17
2017-12-21T07:19:11.423Z,4.30
2017-12-21T07:21:37.456Z,4.37
2017-12-21T07:24:03.475Z,4.50
2017-12-21T07:26:29.578Z,4.20
2017-12-21T07:28:55.954Z,5.13
2017-12-21T07:31:21.997Z,4.40
2017-12-21T07:33:48.129Z,3.80
2017-12-21T07:36:14.197Z,4.17
2017-12-21T07:38:40.305Z,5.00
2017-12-21T07:41:06.316Z,4.60
2017-12-21T07:43:32.356Z,4.37
2017-12-21T07:45:58.405Z,4.80
2017-12-21T07:48:24.868Z,3.87
2017-12-21T07:50:50.881Z,4.70
2017-12-21T07:53:16.928Z,5.70
2017-12-21T07:55:42.996Z,4.77
2017-12-21T07:58:09.058Z,4.47
2017-12-21T08:00:35.514Z,4.17
2017-12-21T08:03:01.537Z,5.10
2017-12-21T08:05:27.557Z,4.00
2017-12-21T08:07:53.811Z,4.43
2017-12-21T08:10:19.845Z,5.20
2017-12-21T08:12:45.883Z,4.20
2017-12-21T08:15:11.858Z,4.13
2017-12-21T08:17:38.419Z,4.83
2017-12-21T08:20:04.517Z,4.20
2017-12-21T08:22:30.608Z,4.30
2017-12-21T08:24:56.638Z,4.67
2017-12-21T08:27:22.666Z,3.63
2017-12-21T08:29:48.681Z,3.83
2017-12-21T08:32:14.664Z,4.20
2017-12-21T08:34:41.013Z,4.33
2017-12-21T08:37:07.024Z,3.40
2017-12-21T08:39:33.025Z,4.03
2017-12-21T08:41:59.056Z,3.90
2017-12-21T08:44:25.067Z,3.20
2017-12-21T08:46:51.410Z,5.10
2017-12-21T08:49:17.435Z,4.37
2017-12-21T08:51:43.481Z,4.43
2017-12-21T08:54:09.530Z,5.00
2017-12-21T08:56:35.534Z,4.87
2017-12-21T08:59:01.576Z,5.30
2017-12-21T09:01:27.597Z,4.47
2017-12-21T09:03:54.004Z,4.90
2017-12-21T09:06:20.026Z,5.03
2017-12-21T09:08:45.993Z,5.80
2017-12-21T09:11:12.023Z,5.90
2017-12-21T09:13:38.050Z,5.40
2017-12-21T09:16:04.094Z,5.80
2017-12-21T09:18:30.078Z,6.47
2017-12-21T09:20:56.479Z,5.33
2017-12-21T09:23:22.453Z,5.20
2017-12-21T09:25:48.477Z,6.10
2017-12-21T09:28:14.485Z,5.63
2017-12-21T09:30:40.503Z,5.37
2017-12-21T09:33:06.650Z,5.90
2017-12-21T09:35:32.676Z,4.37
2017-12-21T09:37:59.033Z,5.10
2017-12-21T09:40:25.043Z,4.80
2017-12-21T09:42:51.425Z,5.57
2017-12-21T09:45:17.465Z,5.40
2017-12-21T09:47:43.553Z,5.37
2017-12-21T09:50:10.053Z,4.70
2017-12-21T09:52:36.072Z,8.73
2017-12-21T09:55:02.182Z,7.63
2017-12-21T09:57:28.253Z,7.87
2017-12-21T09:59:54.273Z,4.30
2017-12-21T10:02:20.633Z,4.90
2017-12-21T10:04:46.997Z,5.30
2017-12-21T10:07:13.024Z,5.17
2017-12-21T10:09:39.050Z,4.20
2017-12-21T10:12:05.094Z,4.97
2017-12-21T10:14:31.483Z,4.40
2017-12-21T10:16:57.500Z,4.23
2017-12-21T10:19:23.509Z,3.93
2017-12-21T10:21:49.552Z,6.90
2017-12-21T10:24:15.632Z,7.50
2017-12-21T10:26:41.650Z,4.80
2017-12-21T10:29:07.715Z,4.87
2017-12-21T10:31:34.188Z,4.93
2017-12-21T10:34:00.249Z,3.97
2017-12-21T10:36:26.277Z,3.93
2017-12-21T10:38:52.330Z,3.60
2017-12-21T10:41:18.358Z,5.87
2017-12-21T10:43:44.709Z,3.03
2017-12-21T10:46:10.710Z,4.73
2017-12-21T10:48:36.770Z,3.77
2017-12-21T10:51:02.832Z,4.40
2017-12-21T10:53:28.869Z,4.07
2017-12-21T10:55:54.944Z,3.10
2017-12-21T10:58:20.959Z,4.50
2017-12-21T11:00:47.399Z,3.70
2017-12-21T11:03:13.438Z,4.17
2017-12-21T11:05:39.482Z,3.10
2017-12-21T11:08:05.517Z,3.73
2017-12-21T11:10:31.580Z,5.43
2017-12-21T11:12:57.644Z,4.27
2017-12-21T11:15:23.957Z,6.97
2017-12-21T11:17:50.422Z,5.00
2017-12-21T11:20:16.469Z,3.10
2017-12-21T11:22:42.507Z,4.13
2017-12-21T11:25:08.522Z,3.50
2017-12-21T11:27:34.577Z,3.40
2017-12-21T11:30:01.053Z,3.37
2017-12-21T11:32:27.108Z,3.17
2017-12-21T11:34:53.176Z,4.03
2017-12-21T11:37:19.211Z,2.97
2017-12-21T11:39:45.208Z,5.53
2017-12-21T11:42:11.292Z,7.40
2017-12-21T11:44:37.318Z,4.10
2017-12-21T11:47:03.765Z,3.50
2017-12-21T11:49:29.779Z,4.10
2017-12-21T11:51:55.855Z,3.97
2017-12-21T11:54:21.978Z,3.70
2017-12-21T11:56:48.002Z,3.27
2017-12-21T11:59:14.076Z,3.70
2017-12-21T12:01:40.142Z,3.67
2017-12-21T12:04:06.506Z,3.30
2017-12-21T12:06:32.565Z,3.67
2017-12-21T12:08:58.565Z,2.80
2017-12-21T12:11:24.628Z,3.40
2017-12-21T12:13:50.654Z,4.60
2017-12-21T12:16:17.091Z,4.80
2017-12-21T12:18:43.137Z,3.50
2017-12-21T12:21:09.137Z,2.80
2017-12-21T12:23:35.176Z,2.93
2017-12-21T12:26:01.192Z,3.13
2017-12-21T12:28:27.306Z,2.40
2017-12-21T12:30:53.379Z,3.10
2017-12-21T12:33:19.857Z,2.57
2017-12-21T12:35:46.008Z,3.40
2017-12-21T12:38:12.057Z,3.00
2017-12-21T12:40:38.543Z,3.20
2017-12-21T12:43:04.614Z,2.70
2017-12-21T12:45:30.657Z,2.70
2017-12-21T12:47:56.680Z,3.73
2017-12-21T12:50:22.657Z,3.07
2017-12-21T12:52:48.718Z,2.57
2017-12-21T12:55:14.775Z,3.10
2017-12-21T12:57:41.160Z,3.70
2017-12-21T13:00:07.192Z,2.60
2017-12-21T13:02:33.279Z,2.47
2017-12-21T13:04:59.336Z,2.97
2017-12-21T13:07:25.385Z,2.60
2017-12-21T13:09:51.444Z,3.07
2017-12-21T13:12:17.456Z,3.70
2017-12-21T13:14:43.905Z,2.90
2017-12-21T13:17:09.949Z,3.23
2017-12-21T13:19:35.974Z,2.90
2017-12-21T13:22:01.971Z,2.70
2017-12-21T13:24:27.986Z,4.00
2017-12-21T13:26:54.441Z,3.60
2017-12-21T13:29:20.455Z,3.77
2017-12-21T13:31:46.482Z,5.27
2017-12-21T13:34:12.626Z,5.40
2017-12-21T13:36:38.646Z,4.60
2017-12-21T13:39:05.186Z,4.30
2017-12-21T13:41:31.241Z,3.50
2017-12-21T13:43:57.303Z,3.30
2017-12-21T13:46:23.344Z,3.73
2017-12-21T13:48:49.394Z,3.47
2017-12-21T13:51:15.821Z,3.10
2017-12-21T13:53:41.874Z,3.00
2017-12-21T13:56:07.874Z,3.40
2017-12-21T13:58:33.929Z,2.97
2017-12-21T14:00:59.946Z,3.20
2017-12-21T14:03:26.370Z,2.67
2017-12-21T14:05:52.425Z,2.17
2017-12-21T14:08:18.501Z,2.17
2017-12-21T14:10:44.615Z,3.10
2017-12-21T14:13:10.646Z,2.60
2017-12-21T14:15:36.727Z,3.97
2017-12-21T14:18:03.018Z,3.07
2017-12-21T14:20:30.602Z,2.63
2017-12-21T14:22:56.782Z,3.40
2017-12-21T14:25:23.078Z,2.53
2017-12-21T14:27:49.174Z,2.30
2017-12-21T14:30:15.393Z,2.40
2017-12-21T14:32:41.462Z,2.73
2017-12-21T14:35:07.655Z,2.23
2017-12-21T14:37:33.990Z,2.63
2017-12-21T14:40:00.070Z,2.80
2017-12-21T14:42:26.125Z,2.20
2017-12-21T14:44:52.357Z,2.40
2017-12-21T14:47:18.413Z,2.93
2017-12-21T14:49:44.847Z,2.67
2017-12-21T14:52:10.909Z,2.30
2017-12-21T14:54:36.904Z,3.00
2017-12-21T14:57:02.956Z,2.23
2017-12-21T14:59:29.038Z,2.07
2017-12-21T15:01:55.062Z,2.70
2017-12-21T15:04:21.110Z,2.40
2017-12-21T15:06:47.160Z,2.80
2017-12-21T15:09:13.570Z,2.27
2017-12-21T15:11:39.613Z,3.23
2017-12-21T15:14:05.673Z,3.13
2017-12-21T15:16:31.746Z,7.00
2017-12-21T15:18:58.384Z,7.67
2017-12-21T15:21:24.824Z,4.97
2017-12-21T15:23:50.879Z,4.47
2017-12-21T15:26:16.964Z,3.90
2017-12-21T15:28:43.039Z,3.43
2017-12-21T15:31:09.074Z,3.00
2017-12-21T15:33:35.121Z,3.20
2017-12-21T15:36:01.154Z,2.40
2017-12-21T15:38:27.640Z,2.90
2017-12-21T15:40:53.678Z,2.53
2017-12-21T15:43:19.688Z,2.93
2017-12-21T15:45:45.724Z,3.33
2017-12-21T15:48:11.788Z,3.10
2017-12-21T15:50:37.866Z,2.40
2017-12-21T15:53:03.932Z,3.37
2017-12-21T15:55:31.219Z,2.13
2017-12-21T15:57:57.284Z,2.47
2017-12-21T16:00:23.316Z,2.10
2017-12-21T16:02:49.339Z,2.73
2017-12-21T16:05:15.496Z,4.10
2017-12-21T16:07:42.028Z,4.20
2017-12-21T16:10:07.997Z,2.90
2017-12-21T16:12:34.022Z,3.63
2017-12-21T16:15:00.074Z,3.27
2017-12-21T16:17:26.116Z,3.47
2017-12-21T16:19:52.551Z,3.10
2017-12-21T16:22:18.538Z,3.37
2017-12-21T16:24:44.626Z,3.43
2017-12-21T16:27:10.690Z,3.27
2017-12-21T16:29:36.753Z,4.43
2017-12-21T16:32:03.201Z,6.43
2017-12-21T16:34:29.240Z,5.03
2017-12-21T16:36:55.232Z,4.87
2017-12-21T16:39:21.296Z,4.80
2017-12-21T16:41:47.334Z,2.80
2017-12-21T16:44:14.909Z,3.17
2017-12-21T16:46:40.950Z,3.10
2017-12-21T16:49:06.989Z,3.20
2017-12-21T16:51:33.047Z,3.77
2017-12-21T16:53:59.076Z,3.00
2017-12-21T16:56:25.428Z,4.73
2017-12-21T16:58:51.491Z,4.30
2017-12-21T17:01:17.545Z,3.60
2017-12-21T17:03:43.651Z,3.53
2017-12-21T17:06:09.680Z,3.70
2017-12-21T17:08:35.701Z,3.70
2017-12-21T17:11:01.719Z,3.80
2017-12-21T17:16:24.466Z,2.90
2017-12-21T17:18:50.585Z,3.00
2017-12-21T17:21:16.758Z,2.80
2017-12-21T17:23:42.899Z,3.30
2017-12-21T17:26:09.378Z,3.53
2017-12-21T17:28:35.430Z,4.80
2017-12-21T17:31:01.473Z,6.50
2017-12-21T17:33:27.526Z,8.13
2017-12-21T17:35:53.711Z,6.20
2017-12-21T17:38:19.773Z,7.90
2017-12-21T17:40:45.885Z,5.47
2017-12-21T17:43:12.268Z,3.93
2017-12-21T17:45:38.393Z,3.70
2017-12-21T17:48:04.445Z,2.60
2017-12-21T17:50:30.508Z,10.33
2017-12-21T17:52:56.561Z,9.87
2017-12-21T17:55:23.916Z,41.17
2017-12-21T17:57:49.946Z,34.13
2017-12-21T18:00:16.018Z,19.37
2017-12-21T18:02:42.032Z,37.13
2017-12-21T18:05:08.057Z,9.20
2017-12-21T18:07:34.138Z,3.83
2017-12-21T18:10:00.185Z,4.20
2017-12-21T18:12:26.256Z,2.60
2017-12-21T18:14:52.285Z,2.97
2017-12-21T18:17:18.313Z,2.83
2017-12-21T18:19:44.782Z,2.57
2017-12-21T18:22:10.778Z,2.40
2017-12-21T18:24:36.921Z,2.67
2017-12-21T18:27:02.946Z,2.73
2017-12-21T18:29:29.068Z,2.60
2017-12-21T18:31:55.545Z,3.37
2017-12-21T18:34:21.623Z,4.00
2017-12-21T18:36:47.654Z,3.27
2017-12-21T18:39:13.722Z,3.70
2017-12-21T18:41:39.787Z,12.90
2017-12-21T18:44:07.098Z,18.00
2017-12-21T18:46:33.178Z,12.77
2017-12-21T18:48:59.262Z,5.50
2017-12-21T18:51:25.408Z,5.73
2017-12-21T18:53:51.433Z,7.00
2017-12-21T18:56:17.525Z,5.23
2017-12-21T18:58:43.538Z,4.50
2017-12-21T19:01:09.870Z,5.63
2017-12-21T19:03:35.852Z,5.43
2017-12-21T19:06:02.034Z,5.60
2017-12-21T19:08:28.094Z,4.80
2017-12-21T19:10:54.114Z,5.20
2017-12-21T19:13:20.522Z,4.30
2017-12-21T19:15:46.570Z,5.00
2017-12-21T19:18:12.673Z,5.87
2017-12-21T19:20:38.757Z,5.67
2017-12-21T19:23:04.915Z,6.60
2017-12-21T19:25:30.940Z,8.87
2017-12-21T19:27:57.115Z,6.70
2017-12-21T19:30:23.565Z,6.40
2017-12-21T19:32:49.628Z,6.30
2017-12-21T19:35:15.606Z,6.63
2017-12-21T19:37:41.627Z,5.97
2017-12-21T19:40:07.637Z,5.03
2017-12-21T19:42:34.161Z,6.63
2017-12-21T19:45:00.338Z,5.30
2017-12-21T19:47:26.393Z,4.37
2017-12-21T19:49:52.565Z,4.97
2017-12-21T19:52:18.697Z,5.07
2017-12-21T19:54:45.039Z,4.90
2017-12-21T19:57:11.179Z,3.33
2017-12-21T19:59:37.223Z,3.80
2017-12-21T20:02:04.082Z,4.40
2017-12-21T20:04:30.314Z,4.20
2017-12-21T20:06:56.326Z,4.13
2017-12-21T20:09:22.436Z,4.80
2017-12-21T20:11:48.927Z,4.70
2017-12-21T20:14:15.150Z,4.70
2017-12-21T20:16:41.128Z,5.17
2017-12-21T20:19:07.266Z,4.30
2017-12-21T20:21:33.313Z,5.00
2017-12-21T20:23:59.352Z,4.23
2017-12-21T20:26:25.377Z,4.60
2017-12-21T20:28:51.901Z,4.67
2017-12-21T20:31:18.914Z,4.17
2017-12-21T20:33:44.962Z,4.00
2017-12-21T20:36:11.039Z,4.83
2017-12-21T20:38:37.063Z,3.90
2017-12-21T20:41:03.146Z,4.03
2017-12-21T20:43:29.521Z,5.80
2017-12-21T20:45:55.558Z,3.60
2017-12-21T20:48:21.638Z,4.40
2017-12-21T20:50:47.702Z,4.87
2017-12-21T20:53:13.701Z,4.90
2017-12-21T20:55:40.042Z,5.40
2017-12-21T20:58:06.146Z,4.77
2017-12-21T21:00:32.309Z,5.00
2017-12-21T21:02:58.402Z,4.40
2017-12-21T21:05:24.494Z,4.83
2017-12-21T21:07:50.546Z,4.67
2017-12-21T21:10:16.626Z,4.20
2017-12-21T21:12:43.215Z,5.00
2017-12-21T21:15:09.317Z,4.43
2017-12-21T21:17:35.342Z,5.17
2017-12-21T21:20:01.574Z,4.77
2017-12-21T21:22:27.642Z,5.57
2017-12-21T21:24:53.718Z,4.63
2017-12-21T21:27:19.778Z,3.87
2017-12-21T21:29:46.110Z,3.90
2017-12-21T21:32:12.138Z,3.57
2017-12-21T21:34:38.208Z,4.80
2017-12-21T21:37:04.364Z,4.50
2017-12-21T21:39:30.417Z,4.27
2017-12-21T21:41:56.508Z,4.50
2017-12-21T21:44:22.498Z,4.90
2017-12-21T21:46:48.922Z,5.20
2017-12-21T21:49:14.965Z,4.97
2017-12-21T21:51:41.024Z,4.20
2017-12-21T21:54:07.116Z,4.63
2017-12-21T21:56:33.174Z,4.50
2017-12-21T21:58:59.639Z,4.33
2017-12-21T22:01:25.759Z,5.90
2017-12-21T22:03:51.807Z,4.70
2017-12-21T22:06:17.897Z,4.87
2017-12-21T22:08:43.917Z,3.53
2017-12-21T22:11:10.359Z,3.97
2017-12-21T22:13:36.354Z,3.90
2017-12-21T22:16:02.355Z,4.10
2017-12-21T22:18:28.496Z,5.13
2017-12-21T22:20:54.485Z,4.37
2017-12-21T22:23:20.523Z,3.70
2017-12-21T22:25:46.641Z,4.17
2017-12-21T22:28:12.992Z,3.90
2017-12-21T22:30:39.030Z,3.20
2017-12-21T22:33:05.106Z,3.13
2017-12-21T22:35:31.178Z,3.20
2017-12-21T22:37:57.185Z,3.43
2017-12-21T22:40:23.572Z,2.83
2017-12-21T22:42:49.583Z,3.20
2017-12-21T22:45:15.554Z,3.23
2017-12-21T22:47:41.612Z,2.83
2017-12-21T22:50:07.673Z,2.40
2017-12-21T22:52:33.724Z,3.17
2017-12-21T22:54:59.749Z,3.17
2017-12-21T22:57:26.111Z,3.30
2017-12-21T22:59:52.177Z,3.67
2017-12-21T23:02:18.225Z,5.07
2017-12-21T23:04:44.289Z,3.67
2017-12-21T23:07:10.351Z,2.97
2017-12-21T23:09:36.428Z,3.50
2017-12-21T23:12:02.528Z,3.10
2017-12-21T23:14:28.562Z,3.80
2017-12-21T23:16:55.186Z,3.77
2017-12-21T23:19:21.304Z,3.63
2017-12-21T23:21:47.355Z,4.13
2017-12-21T23:24:13.486Z,3.57
2017-12-21T23:26:39.547Z,4.50
2017-12-21T23:29:05.969Z,4.87
2017-12-21T23:31:31.994Z,3.73
2017-12-21T23:33:58.042Z,4.90
2017-12-21T23:36:24.039Z,4.30
2017-12-21T23:38:50.054Z,5.30
2017-12-21T23:41:16.101Z,4.80
2017-12-21T23:43:42.140Z,4.57
2017-12-21T23:46:08.558Z,5.03
2017-12-21T23:48:34.606Z,6.67
2017-12-21T23:51:00.685Z,6.27
2017-12-21T23:53:26.770Z,7.30
2017-12-21T23:55:52.744Z,7.40
2017-12-21T23:58:19.173Z,7.60
